createdAt,value
2018-03-19T00:01:44.679Z,35.79
2018-03-19T00:04:10.627Z,36.19
2018-03-19T00:06:36.572Z,36.64
2018-03-19T00:09:02.528Z,36.38
2018-03-19T00:11:28.465Z,36.29
2018-03-19T00:13:54.431Z,37.14
2018-03-19T00:16:20.367Z,36.19
2018-03-19T00:18:46.317Z,36.74
2018-03-19T00:21:12.259Z,36.81
2018-03-19T00:23:38.250Z,36.79
2018-03-19T00:26:04.195Z,36.77
2018-03-19T00:28:30.173Z,36.30
2018-03-19T00:30:56.137Z,36.17
2018-03-19T00:33:22.091Z,36.06
2018-03-19T00:35:48.081Z,36.11
2018-03-19T00:38:14.052Z,36.31
2018-03-19T00:40:40.005Z,36.74
2018-03-19T00:43:05.969Z,36.77
2018-03-19T00:45:31.906Z,36.16
2018-03-19T00:47:57.906Z,36.63
2018-03-19T00:50:23.876Z,36.20
2018-03-19T00:52:49.822Z,35.95
2018-03-19T00:55:15.761Z,36.51
2018-03-19T00:57:41.707Z,36.27
2018-03-19T01:00:07.644Z,36.42
2018-03-19T01:02:33.602Z,36.42
2018-03-19T01:04:59.560Z,36.45
2018-03-19T01:07:25.503Z,36.32
2018-03-19T01:09:51.430Z,36.59
2018-03-19T01:12:17.393Z,36.46
2018-03-19T01:14:43.349Z,36.42
2018-03-19T01:17:09.330Z,37.22
2018-03-19T01:19:35.285Z,37.00
2018-03-19T01:22:01.244Z,36.58
2018-03-19T01:24:27.197Z,36.62
2018-03-19T01:26:53.148Z,37.58
2018-03-19T01:29:19.102Z,37.71
2018-03-19T01:31:45.040Z,36.54
2018-03-19T01:34:10.973Z,37.08
2018-03-19T01:36:36.914Z,37.03
2018-03-19T01:39:02.838Z,37.85
2018-03-19T01:41:28.786Z,37.71
2018-03-19T01:43:54.730Z,37.71
2018-03-19T01:46:20.692Z,38.46
2018-03-19T01:48:46.637Z,37.81
2018-03-19T01:51:12.578Z,37.79
2018-03-19T01:53:38.509Z,37.63
2018-03-19T01:56:04.455Z,37.44
2018-03-19T01:58:30.415Z,37.72
2018-03-19T02:00:56.355Z,38.23
2018-03-19T02:03:22.306Z,37.55
2018-03-19T02:05:48.238Z,38.63
2018-03-19T02:08:14.186Z,38.26
2018-03-19T02:10:40.150Z,37.99
2018-03-19T02:13:06.112Z,38.41
2018-03-19T02:15:32.072Z,38.96
2018-03-19T02:17:58.021Z,38.66
2018-03-19T02:23:09.749Z,38.72
2018-03-19T02:25:35.857Z,38.99
2018-03-19T02:28:01.817Z,38.91
2018-03-19T02:30:27.760Z,38.50
2018-03-19T02:32:53.754Z,38.63
2018-03-19T02:35:19.674Z,37.99
2018-03-19T02:37:45.635Z,38.43
2018-03-19T02:40:11.604Z,38.98
2018-03-19T02:42:37.555Z,38.31
2018-03-19T02:45:03.521Z,38.85
2018-03-19T02:47:29.477Z,38.95
2018-03-19T02:49:55.430Z,38.63
2018-03-19T02:52:21.406Z,38.61
2018-03-19T02:54:47.345Z,38.56
2018-03-19T02:57:13.324Z,38.83
2018-03-19T02:59:39.273Z,39.06
2018-03-19T03:02:05.207Z,38.80
2018-03-19T03:04:31.149Z,38.07
2018-03-19T03:06:57.080Z,38.53
2018-03-19T03:09:23.029Z,38.55
2018-03-19T03:11:48.984Z,38.43
2018-03-19T03:14:14.967Z,38.58
2018-03-19T03:16:40.917Z,39.12
2018-03-19T03:19:06.877Z,38.96
2018-03-19T03:21:32.841Z,38.10
2018-03-19T03:23:58.797Z,38.90
2018-03-19T03:26:24.737Z,38.97
2018-03-19T03:28:50.699Z,38.94
2018-03-19T03:31:16.655Z,38.98
2018-03-19T03:33:42.597Z,39.17
2018-03-19T03:36:08.553Z,38.88
2018-03-19T03:38:34.492Z,38.83
2018-03-19T03:41:00.466Z,39.23
2018-03-19T03:43:26.397Z,39.18
2018-03-19T03:45:52.362Z,39.23
2018-03-19T03:48:18.347Z,40.04
2018-03-19T03:50:44.309Z,40.12
2018-03-19T03:53:10.252Z,40.23
2018-03-19T03:55:36.241Z,39.39
2018-03-19T03:58:02.165Z,39.43
2018-03-19T04:00:28.111Z,39.27
2018-03-19T04:02:54.042Z,39.27
2018-03-19T04:05:20.014Z,39.56
2018-03-19T04:07:45.968Z,39.42
2018-03-19T04:10:11.945Z,39.80
2018-03-19T04:12:37.907Z,39.53
2018-03-19T04:15:03.867Z,39.55
2018-03-19T04:17:29.813Z,40.29
2018-03-19T04:19:55.798Z,40.74
2018-03-19T04:22:21.786Z,40.79
2018-03-19T04:24:47.760Z,40.99
2018-03-19T04:27:13.728Z,40.04
2018-03-19T04:29:39.706Z,40.54
2018-03-19T04:32:05.658Z,40.93
2018-03-19T04:34:31.629Z,40.64
2018-03-19T04:36:57.587Z,40.64
2018-03-19T04:39:23.560Z,40.37
2018-03-19T04:41:49.505Z,40.43
2018-03-19T04:44:15.555Z,40.41
2018-03-19T04:46:41.506Z,40.28
2018-03-19T04:49:07.452Z,40.51
2018-03-19T04:51:33.412Z,40.47
2018-03-19T04:53:59.362Z,40.79
2018-03-19T04:56:25.310Z,40.73
2018-03-19T04:58:51.300Z,40.45
2018-03-19T05:01:17.270Z,40.54
2018-03-19T05:03:43.230Z,41.05
2018-03-19T05:06:10.298Z,40.66
2018-03-19T05:08:36.262Z,40.78
2018-03-19T05:11:02.238Z,40.75
2018-03-19T05:13:28.194Z,40.63
2018-03-19T05:15:54.142Z,40.92
2018-03-19T05:18:20.086Z,41.00
2018-03-19T05:20:46.057Z,40.70
2018-03-19T05:23:12.022Z,40.25
2018-03-19T05:25:37.994Z,41.11
2018-03-19T05:28:03.936Z,40.57
2018-03-19T05:30:29.888Z,41.10
2018-03-19T05:32:55.842Z,40.82
2018-03-19T05:35:21.808Z,40.99
2018-03-19T05:37:48.200Z,40.47
2018-03-19T05:40:14.168Z,40.23
2018-03-19T05:42:40.135Z,40.41
2018-03-19T05:45:06.091Z,40.80
2018-03-19T05:47:32.050Z,40.93
2018-03-19T05:49:58.015Z,40.82
2018-03-19T05:52:23.949Z,40.32
2018-03-19T05:54:49.895Z,40.27
2018-03-19T05:57:15.854Z,40.33
2018-03-19T05:59:41.818Z,39.45
2018-03-19T06:02:07.775Z,39.09
2018-03-19T06:04:33.740Z,39.19
2018-03-19T06:06:59.740Z,39.13
2018-03-19T06:09:25.710Z,38.78
2018-03-19T06:11:51.695Z,38.41
2018-03-19T06:14:18.763Z,38.07
2018-03-19T06:16:44.723Z,37.23
2018-03-19T06:19:10.689Z,36.78
2018-03-19T06:21:36.619Z,37.20
2018-03-19T06:24:02.549Z,36.63
2018-03-19T06:26:28.482Z,36.54
2018-03-19T06:28:54.435Z,36.62
2018-03-19T06:31:20.381Z,36.42
2018-03-19T06:33:46.352Z,36.09
2018-03-19T06:36:12.280Z,35.57
2018-03-19T06:38:38.249Z,35.43
2018-03-19T06:41:04.201Z,35.10
2018-03-19T06:43:30.157Z,35.09
2018-03-19T06:45:56.124Z,36.07
2018-03-19T06:48:22.102Z,35.01
2018-03-19T06:50:48.059Z,35.68
2018-03-19T06:53:13.987Z,38.95
2018-03-19T06:55:39.960Z,38.34
2018-03-19T06:58:05.909Z,35.58
2018-03-19T07:00:31.859Z,35.09
2018-03-19T07:02:57.885Z,35.43
2018-03-19T07:05:23.909Z,34.60
2018-03-19T07:07:49.941Z,37.94
2018-03-19T07:10:15.893Z,34.67
2018-03-19T07:12:41.833Z,33.68
2018-03-19T07:15:07.790Z,34.21
2018-03-19T07:17:33.746Z,33.46
2018-03-19T07:19:59.692Z,32.33
2018-03-19T07:22:25.631Z,32.55
2018-03-19T07:24:51.598Z,31.69
2018-03-19T07:27:17.567Z,33.19
2018-03-19T07:29:43.534Z,31.66
2018-03-19T07:32:09.465Z,32.49
2018-03-19T07:34:35.476Z,34.03
2018-03-19T07:37:01.401Z,32.97
2018-03-19T07:39:27.397Z,32.70
2018-03-19T07:41:53.377Z,32.18
2018-03-19T07:44:19.343Z,32.04
2018-03-19T07:46:45.291Z,30.65
2018-03-19T07:49:11.242Z,31.14
2018-03-19T07:51:37.215Z,31.03
2018-03-19T07:54:03.150Z,31.42
2018-03-19T07:56:29.098Z,30.49
2018-03-19T07:58:55.050Z,28.84
2018-03-19T08:01:21.016Z,29.14
2018-03-19T08:03:46.960Z,28.23
2018-03-19T08:06:12.891Z,28.10
2018-03-19T08:08:38.826Z,29.13
2018-03-19T08:11:04.777Z,28.88
2018-03-19T08:13:30.732Z,28.82
2018-03-19T08:15:56.691Z,30.25
2018-03-19T08:18:22.656Z,31.63
2018-03-19T08:20:48.591Z,33.02
2018-03-19T08:23:14.564Z,32.88
2018-03-19T08:25:40.506Z,33.02
2018-03-19T08:28:06.446Z,33.98
2018-03-19T08:30:32.405Z,33.43
2018-03-19T08:32:59.465Z,34.22
2018-03-19T08:35:25.403Z,33.56
2018-03-19T08:37:51.367Z,34.26
2018-03-19T08:40:17.350Z,34.21
2018-03-19T08:42:43.313Z,33.20
2018-03-19T08:45:09.242Z,32.85
2018-03-19T08:47:35.206Z,32.81
2018-03-19T08:50:01.163Z,33.65
2018-03-19T08:52:27.122Z,33.96
2018-03-19T08:54:53.058Z,33.23
2018-03-19T08:57:19.018Z,33.90
2018-03-19T08:59:44.969Z,33.99
2018-03-19T09:02:10.928Z,34.64
2018-03-19T09:04:36.878Z,34.09
2018-03-19T09:07:02.830Z,34.27
2018-03-19T09:09:28.762Z,34.71
2018-03-19T09:11:54.690Z,34.90
2018-03-19T09:14:20.651Z,35.54
2018-03-19T09:16:46.646Z,35.23
2018-03-19T09:19:12.604Z,34.87
2018-03-19T09:21:38.581Z,34.05
2018-03-19T09:24:04.522Z,35.03
2018-03-19T09:26:30.469Z,34.96
2018-03-19T09:28:56.418Z,35.44
2018-03-19T09:31:22.380Z,34.89
2018-03-19T09:33:48.320Z,34.88
2018-03-19T09:36:14.254Z,35.29
2018-03-19T09:38:40.194Z,35.51
2018-03-19T09:41:06.166Z,35.61
2018-03-19T09:43:32.118Z,35.62
2018-03-19T09:45:58.087Z,35.09
2018-03-19T09:48:24.023Z,35.91
2018-03-19T09:50:49.990Z,36.10
2018-03-19T09:53:15.934Z,35.83
2018-03-19T09:55:41.888Z,35.54
2018-03-19T09:58:07.816Z,36.07
2018-03-19T10:00:33.778Z,36.12
2018-03-19T10:02:59.724Z,36.77
2018-03-19T10:05:25.671Z,38.34
2018-03-19T10:07:51.619Z,37.50
2018-03-19T10:10:17.584Z,37.22
2018-03-19T10:12:43.555Z,37.34
2018-03-19T10:15:09.541Z,36.23
2018-03-19T10:17:35.487Z,37.24
2018-03-19T10:20:01.428Z,37.42
2018-03-19T10:22:27.801Z,37.14
2018-03-19T10:24:53.756Z,37.44
2018-03-19T10:27:19.709Z,37.42
2018-03-19T10:29:45.683Z,37.55
2018-03-19T10:32:11.632Z,37.31
2018-03-19T10:34:37.593Z,37.73
2018-03-19T10:37:03.550Z,37.53
2018-03-19T10:39:29.495Z,37.87
2018-03-19T10:41:55.422Z,37.72
2018-03-19T10:44:21.378Z,39.01
2018-03-19T10:46:47.323Z,37.96
2018-03-19T10:49:13.246Z,38.26
2018-03-19T10:51:39.209Z,37.25
2018-03-19T10:54:05.177Z,37.40
2018-03-19T10:56:31.118Z,37.36
2018-03-19T10:58:57.057Z,38.05
2018-03-19T11:01:23.028Z,37.66
2018-03-19T11:03:48.945Z,38.09
2018-03-19T11:06:14.898Z,37.27
2018-03-19T11:08:40.859Z,36.63
2018-03-19T11:11:06.806Z,36.50
2018-03-19T11:13:32.763Z,36.11
2018-03-19T11:15:58.707Z,36.85
2018-03-19T11:18:24.660Z,36.85
2018-03-19T11:20:50.613Z,36.40
2018-03-19T11:23:16.572Z,35.82
2018-03-19T11:25:42.520Z,35.61
2018-03-19T11:28:08.487Z,35.59
2018-03-19T11:30:34.445Z,35.86
2018-03-19T11:33:00.423Z,35.46
2018-03-19T11:35:26.393Z,36.43
2018-03-19T11:37:52.358Z,36.06
2018-03-19T11:40:18.311Z,36.92
2018-03-19T11:42:44.251Z,36.33
2018-03-19T11:45:10.278Z,36.25
2018-03-19T11:47:36.252Z,36.40
2018-03-19T11:50:02.203Z,36.09
2018-03-19T11:52:28.167Z,37.39
2018-03-19T11:54:54.147Z,37.05
2018-03-19T11:57:20.129Z,36.29
2018-03-19T11:59:46.079Z,35.99
2018-03-19T12:02:12.057Z,35.63
2018-03-19T12:04:38.001Z,35.33
2018-03-19T12:07:04.155Z,35.74
2018-03-19T12:09:30.117Z,35.82
2018-03-19T12:11:56.074Z,35.59
2018-03-19T12:14:22.041Z,35.34
2018-03-19T12:16:47.980Z,35.85
2018-03-19T12:19:13.929Z,35.64
2018-03-19T12:21:39.909Z,34.88
2018-03-19T12:24:05.884Z,35.18
2018-03-19T12:26:31.834Z,34.86
2018-03-19T12:28:57.801Z,34.48
2018-03-19T12:31:23.777Z,34.09
2018-03-19T12:33:49.728Z,33.79
2018-03-19T12:36:15.668Z,34.38
2018-03-19T12:38:41.642Z,33.70
2018-03-19T12:41:07.578Z,33.99
2018-03-19T12:43:33.546Z,34.16
2018-03-19T12:45:59.508Z,33.02
2018-03-19T12:48:25.481Z,32.44
2018-03-19T12:50:51.447Z,32.59
2018-03-19T12:53:17.402Z,33.60
2018-03-19T12:55:43.349Z,32.23
2018-03-19T12:58:09.299Z,32.38
2018-03-19T13:00:35.230Z,32.15
2018-03-19T13:03:01.253Z,32.34
2018-03-19T13:05:27.206Z,33.05
2018-03-19T13:07:53.151Z,31.81
2018-03-19T13:10:19.112Z,32.06
2018-03-19T13:12:45.078Z,31.78
2018-03-19T13:15:11.047Z,32.38
2018-03-19T13:17:37.011Z,32.10
2018-03-19T13:20:02.965Z,31.97
2018-03-19T13:22:28.925Z,31.44
2018-03-19T13:24:54.870Z,31.66
2018-03-19T13:27:20.850Z,32.00
2018-03-19T13:29:46.809Z,31.60
2018-03-19T13:32:12.742Z,31.98
2018-03-19T13:34:39.799Z,31.58
2018-03-19T13:37:05.760Z,31.39
2018-03-19T13:39:31.730Z,31.08
2018-03-19T13:41:57.664Z,30.80
2018-03-19T13:44:23.641Z,31.03
2018-03-19T13:46:49.638Z,31.05
2018-03-19T13:49:15.598Z,30.63
2018-03-19T13:51:41.537Z,31.01
2018-03-19T13:54:07.478Z,31.03
2018-03-19T13:56:33.420Z,30.73
2018-03-19T13:58:59.377Z,30.93
2018-03-19T14:01:25.356Z,30.57
2018-03-19T14:03:51.306Z,31.08
2018-03-19T14:06:17.246Z,30.00
2018-03-19T14:08:43.207Z,30.39
2018-03-19T14:11:09.191Z,30.05
2018-03-19T14:13:35.146Z,29.42
2018-03-19T14:16:01.096Z,29.71
2018-03-19T14:18:27.150Z,29.94
2018-03-19T14:20:53.100Z,29.12
2018-03-19T14:23:19.082Z,29.50
2018-03-19T14:25:45.074Z,29.48
2018-03-19T14:28:11.077Z,28.80
2018-03-19T14:30:37.019Z,28.54
2018-03-19T14:33:02.975Z,28.40
2018-03-19T14:35:28.954Z,28.49
2018-03-19T14:37:54.926Z,28.98
2018-03-19T14:40:20.874Z,28.37
2018-03-19T14:42:46.852Z,28.34
2018-03-19T14:45:12.787Z,28.33
2018-03-19T14:47:38.760Z,28.88
2018-03-19T14:50:04.724Z,28.18
2018-03-19T14:52:30.696Z,28.13
2018-03-19T14:54:56.667Z,28.53
2018-03-19T14:57:22.642Z,28.55
2018-03-19T14:59:48.653Z,27.61
2018-03-19T15:02:14.602Z,27.89
2018-03-19T15:04:40.650Z,27.76
2018-03-19T15:07:06.606Z,27.31
2018-03-19T15:09:32.575Z,28.05
2018-03-19T15:11:58.560Z,27.76
2018-03-19T15:14:24.478Z,27.13
2018-03-19T15:16:50.423Z,26.94
2018-03-19T15:19:16.371Z,27.31
2018-03-19T15:21:42.350Z,27.27
2018-03-19T15:24:08.409Z,27.80
2018-03-19T15:26:34.359Z,27.29
2018-03-19T15:29:00.311Z,27.55
2018-03-19T15:31:26.241Z,26.98
2018-03-19T15:33:52.179Z,27.14
2018-03-19T15:36:18.232Z,27.35
2018-03-19T15:38:44.171Z,27.38
2018-03-19T15:41:10.111Z,26.61
2018-03-19T15:43:36.058Z,26.27
2018-03-19T15:46:02.021Z,26.51
2018-03-19T15:48:27.971Z,26.50
2018-03-19T15:50:53.935Z,26.68
2018-03-19T15:53:19.911Z,26.50
2018-03-19T15:55:45.850Z,26.26
2018-03-19T15:58:11.801Z,26.29
2018-03-19T16:00:37.761Z,26.25
2018-03-19T16:03:03.742Z,25.94
2018-03-19T16:05:29.741Z,26.97
2018-03-19T16:07:55.679Z,26.60
2018-03-19T16:10:21.623Z,27.07
2018-03-19T16:12:47.792Z,26.44
2018-03-19T16:15:13.747Z,26.65
2018-03-19T16:17:39.764Z,26.06
2018-03-19T16:20:05.719Z,25.89
2018-03-19T16:22:31.709Z,26.03
2018-03-19T16:24:57.645Z,25.87
2018-03-19T16:27:23.662Z,27.13
2018-03-19T16:29:49.606Z,26.71
2018-03-19T16:32:15.551Z,26.37
2018-03-19T16:34:41.497Z,26.00
2018-03-19T16:37:07.447Z,26.87
2018-03-19T16:39:33.421Z,26.74
2018-03-19T16:41:59.370Z,27.02
2018-03-19T16:44:25.316Z,26.77
2018-03-19T16:46:51.249Z,26.69
2018-03-19T16:49:17.214Z,26.76
2018-03-19T16:51:43.180Z,26.40
2018-03-19T16:54:09.127Z,26.85
2018-03-19T16:56:35.056Z,27.18
2018-03-19T16:59:00.997Z,27.66
2018-03-19T17:01:26.948Z,26.95
2018-03-19T17:03:52.907Z,27.10
2018-03-19T17:06:18.854Z,27.17
2018-03-19T17:11:17.108Z,27.29
2018-03-19T17:13:43.098Z,26.86
2018-03-19T17:16:09.084Z,27.17
2018-03-19T17:18:35.034Z,27.01
2018-03-19T17:21:00.973Z,27.54
2018-03-19T17:23:26.912Z,26.75
2018-03-19T17:25:52.990Z,27.42
2018-03-19T17:28:19.023Z,27.26
2018-03-19T17:30:45.043Z,27.68
2018-03-19T17:33:10.969Z,27.65
2018-03-19T17:35:37.008Z,27.81
2018-03-19T17:38:03.023Z,27.80
2018-03-19T17:40:28.957Z,28.44
2018-03-19T17:42:54.909Z,28.29
2018-03-19T17:45:20.864Z,28.19
2018-03-19T17:47:46.796Z,28.69
2018-03-19T17:50:12.747Z,29.07
2018-03-19T17:52:38.701Z,29.79
2018-03-19T17:55:04.661Z,29.06
2018-03-19T17:57:30.595Z,28.90
2018-03-19T17:59:56.544Z,29.82
2018-03-19T18:02:22.537Z,29.44
2018-03-19T18:04:48.483Z,29.08
2018-03-19T18:07:14.423Z,28.70
2018-03-19T18:09:40.377Z,28.84
2018-03-19T18:12:06.334Z,28.83
2018-03-19T18:14:32.293Z,29.06
2018-03-19T18:16:58.265Z,29.86
2018-03-19T18:19:24.213Z,29.64
2018-03-19T18:21:50.172Z,29.39
2018-03-19T18:24:16.139Z,29.49
2018-03-19T18:26:42.095Z,29.87
2018-03-19T18:29:08.049Z,29.19
2018-03-19T18:31:34.033Z,29.60
2018-03-19T18:34:00.025Z,29.48
2018-03-19T18:36:25.984Z,29.17
2018-03-19T18:38:51.915Z,29.75
2018-03-19T18:41:19.056Z,29.28
2018-03-19T18:43:45.132Z,29.12
2018-03-19T18:46:11.085Z,29.88
2018-03-19T18:48:37.039Z,30.17
2018-03-19T18:51:02.993Z,29.49
2018-03-19T18:53:28.955Z,30.22
2018-03-19T18:55:54.900Z,29.49
2018-03-19T18:58:20.848Z,28.25
2018-03-19T19:00:46.813Z,28.25
2018-03-19T19:03:12.755Z,29.19
2018-03-19T19:05:38.742Z,29.03
2018-03-19T19:08:04.730Z,28.80
2018-03-19T19:10:30.631Z,28.96
2018-03-19T19:12:56.610Z,28.96
2018-03-19T19:15:22.559Z,28.98
2018-03-19T19:17:48.518Z,28.77
2018-03-19T19:20:14.486Z,29.64
2018-03-19T19:22:40.465Z,30.38
2018-03-19T19:25:06.438Z,29.76
2018-03-19T19:27:33.455Z,29.75
2018-03-19T19:29:59.439Z,30.68
2018-03-19T19:32:25.387Z,30.38
2018-03-19T19:34:51.551Z,30.49
2018-03-19T19:37:17.556Z,30.54
2018-03-19T19:39:43.542Z,30.92
2018-03-19T19:42:09.516Z,31.08
2018-03-19T19:44:35.497Z,32.23
2018-03-19T19:47:01.604Z,32.28
2018-03-19T19:49:27.570Z,33.35
2018-03-19T19:51:53.628Z,33.59
2018-03-19T19:54:19.590Z,33.58
2018-03-19T19:56:45.542Z,34.76
2018-03-19T19:59:11.538Z,35.04
2018-03-19T20:01:37.551Z,35.08
2018-03-19T20:04:03.531Z,35.82
2018-03-19T20:06:29.520Z,36.07
2018-03-19T20:08:55.539Z,36.13
2018-03-19T20:11:21.814Z,36.20
2018-03-19T20:13:47.847Z,36.34
2018-03-19T20:16:13.819Z,36.88
2018-03-19T20:18:39.777Z,37.15
2018-03-19T20:21:05.777Z,37.63
2018-03-19T20:23:31.763Z,38.16
2018-03-19T20:25:57.716Z,38.81
2018-03-19T20:28:23.804Z,38.97
2018-03-19T20:30:49.725Z,38.65
2018-03-19T20:33:15.691Z,38.64
2018-03-19T20:35:41.647Z,39.27
2018-03-19T20:38:07.607Z,39.90
2018-03-19T20:40:33.568Z,39.40
2018-03-19T20:42:59.615Z,39.00
2018-03-19T20:45:25.564Z,39.29
2018-03-19T20:47:51.534Z,38.81
2018-03-19T20:50:17.501Z,39.24
2018-03-19T20:52:43.475Z,40.06
2018-03-19T20:55:09.448Z,39.36
2018-03-19T20:57:35.398Z,38.64
2018-03-19T21:00:01.343Z,38.42
2018-03-19T21:02:27.313Z,38.91
2018-03-19T21:04:53.275Z,39.27
2018-03-19T21:07:19.243Z,39.59
2018-03-19T21:09:45.187Z,39.29
2018-03-19T21:12:11.183Z,38.96
2018-03-19T21:14:37.137Z,38.52
2018-03-19T21:17:03.114Z,38.33
2018-03-19T21:19:29.083Z,38.60
2018-03-19T21:21:55.039Z,39.04
2018-03-19T21:24:20.979Z,39.15
2018-03-19T21:26:46.960Z,39.79
2018-03-19T21:29:12.958Z,39.21
2018-03-19T21:31:38.927Z,39.66
2018-03-19T21:34:04.889Z,39.97
2018-03-19T21:36:30.849Z,40.48
2018-03-19T21:38:56.797Z,40.27
2018-03-19T21:41:22.755Z,40.47
2018-03-19T21:43:48.793Z,40.37
2018-03-19T21:46:14.738Z,40.18
2018-03-19T21:48:40.687Z,40.34
2018-03-19T21:51:06.654Z,40.39
2018-03-19T21:53:32.643Z,40.12
2018-03-19T21:55:58.583Z,40.15
2018-03-19T21:58:24.543Z,39.80
2018-03-19T22:00:50.487Z,40.24
2018-03-19T22:03:16.438Z,40.10
2018-03-19T22:05:42.429Z,39.69
2018-03-19T22:08:08.403Z,40.07
2018-03-19T22:10:34.354Z,39.84
2018-03-19T22:13:00.332Z,39.30
2018-03-19T22:15:26.282Z,39.35
2018-03-19T22:17:52.240Z,39.20
2018-03-19T22:20:18.225Z,38.80
2018-03-19T22:22:44.205Z,38.32
2018-03-19T22:25:10.217Z,38.01
2018-03-19T22:27:36.163Z,37.91
2018-03-19T22:30:02.134Z,37.98
2018-03-19T22:32:28.106Z,37.99
2018-03-19T22:34:54.058Z,38.44
2018-03-19T22:37:20.026Z,38.54
2018-03-19T22:39:45.981Z,39.09
2018-03-19T22:42:11.954Z,39.53
2018-03-19T22:44:37.901Z,39.49
2018-03-19T22:47:03.845Z,40.01
2018-03-19T22:49:29.805Z,40.59
2018-03-19T22:51:55.788Z,40.96
2018-03-19T22:54:21.725Z,40.60
2018-03-19T22:56:47.672Z,40.81
2018-03-19T22:59:13.622Z,41.08
2018-03-19T23:01:39.582Z,41.37
2018-03-19T23:04:05.514Z,41.33
2018-03-19T23:06:31.478Z,41.55
2018-03-19T23:08:57.417Z,41.53
2018-03-19T23:11:23.355Z,41.09
2018-03-19T23:13:49.290Z,42.71
2018-03-19T23:16:15.253Z,42.86
2018-03-19T23:18:41.197Z,42.96
2018-03-19T23:21:07.141Z,42.57
2018-03-19T23:23:33.073Z,43.07
2018-03-19T23:25:59.021Z,43.08
2018-03-19T23:28:24.962Z,42.89
2018-03-19T23:30:50.932Z,42.61
2018-03-19T23:33:16.886Z,42.76
2018-03-19T23:35:42.837Z,42.81
2018-03-19T23:38:08.784Z,42.73
2018-03-19T23:40:34.718Z,43.01
2018-03-19T23:43:00.645Z,43.98
2018-03-19T23:45:26.585Z,42.20
2018-03-19T23:47:52.550Z,42.08
2018-03-19T23:50:18.512Z,41.69
2018-03-19T23:52:44.463Z,41.45
2018-03-19T23:55:10.430Z,41.46
2018-03-19T23:57:36.376Z,42.08
